Dario Filipe — CUHY7 — position and weather

sailwx.info

Track history (hours):
 
Tides and Currents Weather Stations Pressure Air Temp Water Temp Dewpoint Dewpoint Depression Visibility Wind Speed Wind Dir Waves Ship Positions

Dario Filipe

Last reported at 2015-Apr-18 10:25 UTC. Time now 2015-Apr-28 14:29 UTC.
Position N 39°21' W 009°22'.
Warning: this ship's position is 10 days out of date.

Length 24 m.

Type: Fishing. MMSI: 263414640.

Date/timePositionNaut miles runAvg speedWind from/ knotsBaromVisibWave heightAir tempDewpointWater temp
2015-Apr-18 10:25N 39°21' W 009°22'8 1.9
2015-Apr-18 06:07N 39°13' W 009°25'5 8.7
2015-Apr-18 05:32N 39°09' W 009°27'8 8.4
2015-Apr-18 04:33N 39°01' W 009°30'9 8.6
2015-Apr-18 03:32N 38°52' W 009°32'8 8.6
2015-Apr-18 02:33N 38°44' W 009°34'9 8.6
2015-Apr-18 01:33N 38°35' W 009°34'9 8.6
2015-Apr-18 00:33N 38°27' W 009°35'  
2015-Apr-11 17:18N 37°22' W 009°35'35 0.7
2015-Apr-09 18:08N 37°57' W 009°35'33 8.7
2015-Apr-09 14:23N 38°29' W 009°34'8 9.1
2015-Apr-09 13:33N 38°37' W 009°33'9 8.7
2015-Apr-09 12:32N 38°46' W 009°32'8 8.4
2015-Apr-09 11:33N 38°54' W 009°31'  
Track history (hours):
 
Tides and Currents Weather Stations Pressure Air Temp Water Temp Dewpoint Dewpoint Depression Visibility Wind Speed Wind Dir Waves Ship Positions

Dario Filipe

Last reported at 2015-Apr-18 10:25 UTC. Time now 2015-Apr-28 14:29 UTC.
Position N 39°21' W 009°22'.
Warning: this ship's position is 10 days out of date.

Length 24 m.

Type: Fishing. MMSI: 263414640.

Date/timePositionNaut miles runAvg speedWind from/ knotsBaromVisibWave heightAir tempDewpointWater temp
2015-Apr-18 10:25N 39°21' W 009°22'8 1.9
2015-Apr-18 06:07N 39°13' W 009°25'5 8.7
2015-Apr-18 05:32N 39°09' W 009°27'8 8.4
2015-Apr-18 04:33N 39°01' W 009°30'9 8.6
2015-Apr-18 03:32N 38°52' W 009°32'8 8.6
2015-Apr-18 02:33N 38°44' W 009°34'9 8.6
2015-Apr-18 01:33N 38°35' W 009°34'9 8.6
2015-Apr-18 00:33N 38°27' W 009°35'  
2015-Apr-11 17:18N 37°22' W 009°35'35 0.7
2015-Apr-09 18:08N 37°57' W 009°35'33 8.7
2015-Apr-09 14:23N 38°29' W 009°34'8 9.1
2015-Apr-09 13:33N 38°37' W 009°33'9 8.7
2015-Apr-09 12:32N 38°46' W 009°32'8 8.4
2015-Apr-09 11:33N 38°54' W 009°31'  

Dump ship's entire track history